createdAt,value
2022-12-03T00:01:59.686Z,2.22
2022-12-03T00:04:26.962Z,2.21
2022-12-03T00:06:54.040Z,2.23
2022-12-03T00:09:21.247Z,2.24
2022-12-03T00:11:48.360Z,2.20
2022-12-03T00:14:15.508Z,2.24
2022-12-03T00:16:42.544Z,2.21
2022-12-03T00:19:09.592Z,2.21
2022-12-03T00:21:36.650Z,2.22
2022-12-03T00:24:03.800Z,2.21
2022-12-03T00:26:30.908Z,2.23
2022-12-03T00:28:58.162Z,2.25
2022-12-03T00:31:26.198Z,2.25
2022-12-03T00:33:53.789Z,2.22
2022-12-03T00:36:21.163Z,2.23
2022-12-03T00:38:48.387Z,2.23
2022-12-03T00:41:15.489Z,2.26
2022-12-03T00:43:42.569Z,2.26
2022-12-03T00:46:09.953Z,2.25
2022-12-03T00:48:37.070Z,2.26
2022-12-03T00:51:04.329Z,2.26
2022-12-03T00:53:31.452Z,2.26
2022-12-03T00:55:58.567Z,2.27
2022-12-03T00:58:25.755Z,2.23
2022-12-03T01:00:52.805Z,2.18
2022-12-03T01:03:19.913Z,2.24
2022-12-03T01:05:47.090Z,2.20
2022-12-03T01:08:14.331Z,2.21
2022-12-03T01:10:41.510Z,2.20
2022-12-03T01:13:08.568Z,2.21
2022-12-03T01:15:35.712Z,2.23
2022-12-03T01:18:02.880Z,2.23
2022-12-03T01:20:29.996Z,2.22
2022-12-03T01:22:57.109Z,2.21
2022-12-03T01:25:24.198Z,2.23
2022-12-03T01:27:51.263Z,2.17
2022-12-03T01:30:18.379Z,2.18
2022-12-03T01:32:45.511Z,2.22
2022-12-03T01:35:12.596Z,2.16
2022-12-03T01:37:39.777Z,2.21
2022-12-03T01:40:09.215Z,2.21
2022-12-03T01:42:40.527Z,2.19
2022-12-03T01:45:15.239Z,2.22
2022-12-03T01:47:42.365Z,2.23
2022-12-03T01:50:22.238Z,2.22
2022-12-03T01:52:49.532Z,2.20
2022-12-03T01:55:22.688Z,2.25
2022-12-03T01:57:57.389Z,2.24
2022-12-03T02:00:29.263Z,2.28
2022-12-03T02:03:06.840Z,2.25
2022-12-03T02:05:34.748Z,2.23
2022-12-03T02:08:02.336Z,2.24
2022-12-03T02:10:36.819Z,2.25
2022-12-03T02:13:08.583Z,2.23
2022-12-03T02:15:38.075Z,2.25
2022-12-03T02:18:05.631Z,2.26
2022-12-03T02:20:48.694Z,2.25
2022-12-03T02:24:09.413Z,2.28
2022-12-03T02:26:36.600Z,2.26
2022-12-03T02:29:03.811Z,2.28
2022-12-03T02:31:31.299Z,2.30
2022-12-03T02:33:58.455Z,2.28
2022-12-03T02:36:25.839Z,2.32
2022-12-03T02:38:53.152Z,2.33
2022-12-03T02:41:40.848Z,2.31
2022-12-03T02:44:08.940Z,2.35
2022-12-03T02:46:36.763Z,2.35
2022-12-03T02:49:06.114Z,2.36
2022-12-03T02:51:35.163Z,2.35
2022-12-03T02:54:03.518Z,2.37
2022-12-03T02:56:32.913Z,2.35
2022-12-03T02:59:03.825Z,2.38
2022-12-03T03:01:31.416Z,2.40
2022-12-03T03:03:59.579Z,2.40
2022-12-03T03:06:27.204Z,2.40
2022-12-03T03:08:54.435Z,2.41
2022-12-03T03:11:21.616Z,2.39
2022-12-03T03:13:48.804Z,2.39
2022-12-03T03:16:15.976Z,2.39
2022-12-03T03:18:43.080Z,2.43
2022-12-03T03:21:10.439Z,2.44
2022-12-03T03:23:37.538Z,2.42
2022-12-03T03:26:14.085Z,2.42
2022-12-03T03:28:47.804Z,2.44
2022-12-03T03:31:18.647Z,2.43
2022-12-03T03:33:50.023Z,2.45
2022-12-03T03:36:17.916Z,2.45
2022-12-03T03:38:45.035Z,2.46
2022-12-03T03:41:13.361Z,2.44
2022-12-03T03:43:43.233Z,2.46
2022-12-03T03:46:11.592Z,2.48
2022-12-03T03:48:41.253Z,2.47
2022-12-03T03:51:09.514Z,2.47
2022-12-03T03:53:49.925Z,2.48
2022-12-03T03:56:19.770Z,2.47
2022-12-03T03:58:47.050Z,2.50
2022-12-03T04:01:15.282Z,2.48
2022-12-03T04:03:42.621Z,2.52
2022-12-03T04:06:10.346Z,2.52
2022-12-03T04:08:37.392Z,2.50
2022-12-03T04:11:23.297Z,2.52
2022-12-03T04:13:50.400Z,2.52
2022-12-03T04:16:17.532Z,2.52
2022-12-03T04:18:44.719Z,2.53
2022-12-03T04:21:38.722Z,2.53
2022-12-03T04:24:07.967Z,2.51
2022-12-03T04:26:54.511Z,2.52
2022-12-03T04:29:22.229Z,2.54
2022-12-03T04:32:08.342Z,2.51
2022-12-03T04:34:54.655Z,2.54
2022-12-03T04:37:21.972Z,2.49
2022-12-03T04:39:49.059Z,2.53
2022-12-03T04:42:16.172Z,2.55
2022-12-03T04:44:43.333Z,2.52
2022-12-03T04:47:14.573Z,2.53
2022-12-03T04:49:45.812Z,2.52
2022-12-03T04:52:15.297Z,2.52
2022-12-03T04:54:42.867Z,2.53
2022-12-03T04:57:11.227Z,2.54
2022-12-03T04:59:39.140Z,2.54
2022-12-03T05:02:07.679Z,2.52
2022-12-03T05:04:35.170Z,2.53
2022-12-03T05:07:02.824Z,2.55
2022-12-03T05:09:30.090Z,2.55
2022-12-03T05:11:57.188Z,2.54
2022-12-03T05:14:24.416Z,2.56
2022-12-03T05:16:51.582Z,2.54
2022-12-03T05:19:18.743Z,2.57
2022-12-03T05:21:45.858Z,2.57
2022-12-03T05:24:13.733Z,2.54
2022-12-03T05:26:40.790Z,2.57
2022-12-03T05:29:07.983Z,2.55
2022-12-03T05:31:35.044Z,2.52
2022-12-03T05:34:02.178Z,2.55
2022-12-03T05:36:29.318Z,2.57
2022-12-03T05:38:56.371Z,2.56
2022-12-03T05:41:41.954Z,2.54
2022-12-03T05:44:09.052Z,2.50
2022-12-03T05:46:36.244Z,2.50
2022-12-03T05:49:03.417Z,2.52
2022-12-03T05:51:30.525Z,2.51
2022-12-03T05:53:57.572Z,2.52
2022-12-03T05:56:24.697Z,2.50
2022-12-03T05:58:51.763Z,2.49
2022-12-03T06:01:18.862Z,2.51
2022-12-03T06:03:46.050Z,2.49
2022-12-03T06:06:13.295Z,2.46
2022-12-03T06:08:40.414Z,2.48
2022-12-03T06:11:07.479Z,2.45
2022-12-03T06:13:34.571Z,2.46
2022-12-03T06:16:01.765Z,2.47
2022-12-03T06:18:28.958Z,2.46
2022-12-03T06:20:56.076Z,2.43
2022-12-03T06:23:23.123Z,2.45
2022-12-03T06:25:51.166Z,2.45
2022-12-03T06:28:18.231Z,2.45
2022-12-03T06:30:45.440Z,2.43
2022-12-03T06:33:12.583Z,2.43
2022-12-03T06:35:39.647Z,2.45
2022-12-03T06:38:06.718Z,2.44
2022-12-03T06:40:33.803Z,2.45
2022-12-03T06:43:00.926Z,2.41
2022-12-03T06:45:28.022Z,2.41
2022-12-03T06:47:55.140Z,2.42
2022-12-03T06:50:22.287Z,2.42
2022-12-03T06:53:14.368Z,2.41
2022-12-03T06:55:41.413Z,2.44
2022-12-03T06:58:08.504Z,2.39
2022-12-03T07:00:35.627Z,2.38
2022-12-03T07:03:03.020Z,2.41
2022-12-03T07:05:30.206Z,2.39
2022-12-03T07:07:57.322Z,2.36
2022-12-03T07:10:24.484Z,2.35
2022-12-03T07:12:51.593Z,2.39
2022-12-03T07:15:18.678Z,2.35
2022-12-03T07:17:45.745Z,2.33
2022-12-03T07:20:15.259Z,2.33
2022-12-03T07:22:42.369Z,2.31
2022-12-03T07:25:10.043Z,2.32
2022-12-03T07:27:37.108Z,2.31
2022-12-03T07:30:06.312Z,2.31
2022-12-03T07:32:33.393Z,2.28
2022-12-03T07:35:01.071Z,2.31
2022-12-03T07:37:28.131Z,2.29
2022-12-03T07:39:55.214Z,2.28
2022-12-03T07:42:22.326Z,2.28
2022-12-03T07:44:49.607Z,2.27
2022-12-03T07:47:16.957Z,2.25
2022-12-03T07:49:44.342Z,2.26
2022-12-03T07:52:11.401Z,2.27
2022-12-03T07:54:38.570Z,2.28
2022-12-03T07:57:05.714Z,2.24
2022-12-03T07:59:32.848Z,2.24
2022-12-03T08:02:00.128Z,2.28
2022-12-03T08:04:27.272Z,2.28
2022-12-03T08:06:54.637Z,2.29
2022-12-03T08:09:22.408Z,2.25
2022-12-03T08:11:50.361Z,2.26
2022-12-03T08:14:20.851Z,2.25
2022-12-03T08:16:48.802Z,2.26
2022-12-03T08:19:17.800Z,2.23
2022-12-03T08:21:45.403Z,2.23
2022-12-03T08:24:20.787Z,2.24
2022-12-03T08:26:49.542Z,2.18
2022-12-03T08:29:19.630Z,2.16
2022-12-03T08:31:52.071Z,2.16
2022-12-03T08:34:29.545Z,2.12
2022-12-03T08:37:02.101Z,2.13
2022-12-03T08:39:35.739Z,2.17
2022-12-03T08:42:39.185Z,2.15
2022-12-03T08:45:39.404Z,2.12
2022-12-03T08:48:29.699Z,2.13
2022-12-03T08:51:17.418Z,2.09
2022-12-03T08:53:48.556Z,2.09
2022-12-03T08:56:27.038Z,2.09
2022-12-03T08:59:24.888Z,2.14
2022-12-03T09:01:53.462Z,2.13
2022-12-03T09:04:44.827Z,2.13
2022-12-03T09:07:11.930Z,2.10
2022-12-03T09:09:39.149Z,2.12
2022-12-03T09:12:06.514Z,2.14
2022-12-03T09:14:33.659Z,2.12
2022-12-03T09:17:00.899Z,2.09
2022-12-03T09:19:30.997Z,2.11
2022-12-03T09:21:58.229Z,2.07
2022-12-03T09:24:25.497Z,2.07
2022-12-03T09:26:52.810Z,2.08
2022-12-03T09:29:20.066Z,2.09
2022-12-03T09:31:47.365Z,2.10
2022-12-03T09:34:14.591Z,2.10
2022-12-03T09:36:41.792Z,2.12
2022-12-03T09:39:08.874Z,2.10
2022-12-03T09:41:36.317Z,2.10
2022-12-03T09:44:04.914Z,2.11
2022-12-03T09:46:35.145Z,2.09
2022-12-03T09:49:03.784Z,2.09
2022-12-03T09:51:34.889Z,2.05
2022-12-03T09:54:05.786Z,2.05
2022-12-03T09:56:38.058Z,1.93
2022-12-03T09:59:16.212Z,2.00
2022-12-03T10:01:43.562Z,1.94
2022-12-03T10:04:11.294Z,1.95
2022-12-03T10:06:45.259Z,1.94
2022-12-03T10:09:17.609Z,1.94
2022-12-03T10:11:45.019Z,1.97
2022-12-03T10:14:15.010Z,1.96
2022-12-03T10:16:42.449Z,1.97
2022-12-03T10:19:25.361Z,1.94
2022-12-03T10:21:52.717Z,1.96
2022-12-03T10:24:29.771Z,1.95
2022-12-03T10:27:21.977Z,1.95
2022-12-03T10:30:01.350Z,1.95
2022-12-03T10:32:42.882Z,1.93
2022-12-03T10:35:16.272Z,1.92
2022-12-03T10:38:07.170Z,1.86
2022-12-03T10:40:38.392Z,1.88
2022-12-03T10:43:24.502Z,1.86
2022-12-03T10:46:14.182Z,1.81
2022-12-03T10:48:41.344Z,1.82
2022-12-03T10:51:21.164Z,1.82
2022-12-03T10:53:50.130Z,1.90
2022-12-03T10:56:27.404Z,1.87
2022-12-03T10:58:54.942Z,1.84
2022-12-03T11:01:25.371Z,1.80
2022-12-03T11:04:03.138Z,1.80
2022-12-03T11:06:32.979Z,1.78
2022-12-03T11:09:06.906Z,1.82
2022-12-03T11:11:35.811Z,1.73
2022-12-03T11:14:04.857Z,1.78
2022-12-03T11:16:41.058Z,1.72
2022-12-03T11:19:17.766Z,1.74
2022-12-03T11:22:06.472Z,1.71
2022-12-03T11:24:36.380Z,1.68
2022-12-03T11:27:03.431Z,1.73
2022-12-03T11:29:54.365Z,1.73
2022-12-03T11:32:42.628Z,1.74
2022-12-03T11:35:24.957Z,1.77
2022-12-03T11:37:52.227Z,1.70
2022-12-03T11:40:19.265Z,1.77
2022-12-03T11:42:48.946Z,1.75
2022-12-03T11:45:32.987Z,1.75
2022-12-03T11:48:01.668Z,1.75
2022-12-03T11:50:42.880Z,1.74
2022-12-03T11:53:25.974Z,1.72
2022-12-03T11:56:10.920Z,1.73
2022-12-03T11:58:43.057Z,1.72
2022-12-03T12:01:10.321Z,1.68
2022-12-03T12:03:49.820Z,1.66
2022-12-03T12:06:21.043Z,1.67
2022-12-03T12:08:51.337Z,1.68
2022-12-03T12:11:31.911Z,1.67
2022-12-03T12:14:07.643Z,1.65
2022-12-03T12:16:41.107Z,1.68
2022-12-03T12:19:38.659Z,1.74
2022-12-03T12:22:26.646Z,1.76
2022-12-03T12:25:25.982Z,1.76
2022-12-03T12:27:55.025Z,1.77
2022-12-03T12:30:23.355Z,1.75
2022-12-03T12:33:10.042Z,1.69
2022-12-03T12:35:37.272Z,1.72
2022-12-03T12:38:07.260Z,1.69
2022-12-03T12:40:41.154Z,1.71
2022-12-03T12:43:14.412Z,1.60
2022-12-03T12:45:44.274Z,1.66
2022-12-03T12:48:24.456Z,1.65
2022-12-03T12:51:05.741Z,1.63
2022-12-03T12:53:35.883Z,1.66
2022-12-03T12:56:23.667Z,1.63
2022-12-03T12:58:51.530Z,1.57
2022-12-03T13:01:27.524Z,1.60
2022-12-03T13:03:54.863Z,1.56
2022-12-03T13:06:27.849Z,1.57
2022-12-03T13:08:55.534Z,1.62
2022-12-03T13:11:28.369Z,1.60
2022-12-03T13:14:21.426Z,1.62
2022-12-03T13:16:51.657Z,1.64
2022-12-03T13:19:24.933Z,1.61
2022-12-03T13:22:16.859Z,1.58
2022-12-03T13:24:48.015Z,1.58
2022-12-03T13:27:17.825Z,1.64
2022-12-03T13:30:00.980Z,1.65
2022-12-03T13:32:33.680Z,1.60
2022-12-03T13:35:17.415Z,1.60
2022-12-03T13:37:45.330Z,1.61
2022-12-03T13:40:27.760Z,1.59
2022-12-03T13:42:55.104Z,1.55
2022-12-03T13:45:35.605Z,1.52
2022-12-03T13:48:24.303Z,1.52
2022-12-03T13:50:52.807Z,1.54
2022-12-03T13:53:26.952Z,1.48
2022-12-03T13:56:25.674Z,1.51
2022-12-03T13:58:52.833Z,1.49
2022-12-03T14:01:19.954Z,1.48
2022-12-03T14:03:47.163Z,1.49
2022-12-03T14:06:14.434Z,1.48
2022-12-03T14:08:41.483Z,1.42
2022-12-03T14:11:08.687Z,1.40
2022-12-03T14:13:35.754Z,1.36
2022-12-03T14:16:02.913Z,1.34
2022-12-03T14:18:30.067Z,1.34
2022-12-03T14:20:57.172Z,1.34
2022-12-03T14:23:24.306Z,1.29
2022-12-03T14:25:51.482Z,1.28
2022-12-03T14:28:18.622Z,1.30
2022-12-03T14:30:45.667Z,1.28
2022-12-03T14:33:12.791Z,1.31
2022-12-03T14:35:39.899Z,1.28
2022-12-03T14:38:07.000Z,1.24
2022-12-03T14:40:34.556Z,1.30
2022-12-03T14:43:01.650Z,1.28
2022-12-03T14:45:29.823Z,1.25
2022-12-03T14:47:56.989Z,1.29
2022-12-03T14:50:25.905Z,1.29
2022-12-03T14:52:53.083Z,1.24
2022-12-03T14:55:20.199Z,1.24
2022-12-03T14:57:47.300Z,1.26
2022-12-03T15:00:15.240Z,1.27
2022-12-03T15:02:42.401Z,1.22
2022-12-03T15:05:09.755Z,1.28
2022-12-03T15:07:39.255Z,1.24
2022-12-03T15:10:08.050Z,1.26
2022-12-03T15:12:35.218Z,1.26
2022-12-03T15:15:02.313Z,1.24
2022-12-03T15:17:31.965Z,1.27
2022-12-03T15:19:59.516Z,1.29
2022-12-03T15:22:26.634Z,1.22
2022-12-03T15:24:53.704Z,1.22
2022-12-03T15:27:20.753Z,1.22
2022-12-03T15:29:47.906Z,1.18
2022-12-03T15:32:15.075Z,1.14
2022-12-03T15:34:42.197Z,1.18
2022-12-03T15:37:09.321Z,1.16
2022-12-03T15:39:37.543Z,1.18
2022-12-03T15:42:04.710Z,1.16
2022-12-03T15:44:31.802Z,1.17
2022-12-03T15:46:58.915Z,1.15
2022-12-03T15:49:26.039Z,1.10
2022-12-03T15:51:53.946Z,1.10
2022-12-03T15:54:21.041Z,1.09
2022-12-03T15:56:51.486Z,1.12
2022-12-03T15:59:21.267Z,1.12
2022-12-03T16:01:48.382Z,1.11
2022-12-03T16:04:15.567Z,1.07
2022-12-03T16:06:42.633Z,1.05
2022-12-03T16:09:10.374Z,1.05
2022-12-03T16:11:37.478Z,1.05
2022-12-03T16:14:04.565Z,1.03
2022-12-03T16:16:31.766Z,1.02
2022-12-03T16:18:58.868Z,1.05
2022-12-03T16:21:27.178Z,1.05
2022-12-03T16:23:55.332Z,1.10
2022-12-03T16:26:22.818Z,1.07
2022-12-03T16:28:50.056Z,1.03
2022-12-03T16:31:18.959Z,1.05
2022-12-03T16:33:46.262Z,1.02
2022-12-03T16:36:13.601Z,1.04
2022-12-03T16:38:40.742Z,1.05
2022-12-03T16:41:07.874Z,1.04
2022-12-03T16:43:38.505Z,1.02
2022-12-03T16:46:20.878Z,0.99
2022-12-03T16:48:48.696Z,1.00
2022-12-03T16:51:16.583Z,1.05
2022-12-03T16:53:43.726Z,1.05
2022-12-03T16:56:10.828Z,1.01
2022-12-03T16:58:37.942Z,0.96
2022-12-03T17:01:05.499Z,0.98
2022-12-03T17:03:34.269Z,0.96
2022-12-03T17:06:02.214Z,1.00
2022-12-03T17:08:29.656Z,1.00
2022-12-03T17:10:57.083Z,0.97
2022-12-03T17:13:24.536Z,0.94
2022-12-03T17:15:51.726Z,0.95
2022-12-03T17:18:18.883Z,0.97
2022-12-03T17:20:45.992Z,0.97
2022-12-03T17:23:13.282Z,0.96
2022-12-03T17:25:40.405Z,0.94
2022-12-03T17:28:07.493Z,0.92
2022-12-03T17:30:34.596Z,0.94
2022-12-03T17:33:01.723Z,0.94
2022-12-03T17:35:28.830Z,0.96
2022-12-03T17:37:56.022Z,0.98
2022-12-03T17:40:23.328Z,0.94
2022-12-03T17:42:50.442Z,0.97
2022-12-03T17:45:17.534Z,0.96
2022-12-03T17:47:44.681Z,0.93
2022-12-03T17:50:12.345Z,0.93
2022-12-03T17:52:39.444Z,0.94
2022-12-03T17:55:13.161Z,0.94
2022-12-03T17:57:41.555Z,0.94
2022-12-03T18:00:10.297Z,0.92
2022-12-03T18:02:42.303Z,0.87
2022-12-03T18:05:09.790Z,0.91
2022-12-03T18:07:36.920Z,0.87
2022-12-03T18:10:05.173Z,0.89
2022-12-03T18:12:32.430Z,0.90
2022-12-03T18:14:59.564Z,0.87
2022-12-03T18:17:26.672Z,0.89
2022-12-03T18:19:54.249Z,0.89
2022-12-03T18:22:21.687Z,0.88
2022-12-03T18:24:51.852Z,0.86
2022-12-03T18:27:21.145Z,0.88
2022-12-03T18:29:48.803Z,0.86
2022-12-03T18:32:28.295Z,0.85
2022-12-03T18:34:57.325Z,0.89
2022-12-03T18:37:28.509Z,0.88
2022-12-03T18:39:56.759Z,0.85
2022-12-03T18:42:24.467Z,0.86
2022-12-03T18:44:54.651Z,0.87
2022-12-03T18:47:26.253Z,0.84
2022-12-03T18:49:53.987Z,0.85
2022-12-03T18:52:23.693Z,0.88
2022-12-03T18:54:50.957Z,0.84
2022-12-03T18:57:18.130Z,0.85
2022-12-03T18:59:45.318Z,0.84
2022-12-03T19:02:45.953Z,0.83
2022-12-03T19:05:07.014Z,0.82
2022-12-03T19:07:34.136Z,0.83
2022-12-03T19:10:01.257Z,0.78
2022-12-03T19:12:28.379Z,0.73
2022-12-03T19:14:55.475Z,0.76
2022-12-03T19:17:22.551Z,0.79
2022-12-03T19:19:49.810Z,0.77
2022-12-03T19:22:16.871Z,0.77
2022-12-03T19:24:44.017Z,0.77
2022-12-03T19:27:11.163Z,0.77
2022-12-03T19:29:38.298Z,0.71
2022-12-03T19:32:05.630Z,0.71
2022-12-03T19:34:32.858Z,0.72
2022-12-03T19:36:59.901Z,0.71
2022-12-03T19:39:27.019Z,0.63
2022-12-03T19:41:54.083Z,0.66
2022-12-03T19:44:21.247Z,0.65
2022-12-03T19:46:50.760Z,0.62
2022-12-03T19:49:20.732Z,0.67
2022-12-03T19:51:48.341Z,0.66
2022-12-03T19:54:15.801Z,0.70
2022-12-03T19:56:43.925Z,0.67
2022-12-03T19:59:12.845Z,0.66
2022-12-03T20:01:42.780Z,0.63
2022-12-03T20:04:12.595Z,0.64
2022-12-03T20:06:40.970Z,0.63
2022-12-03T20:09:17.141Z,0.62
2022-12-03T20:11:45.807Z,0.62
2022-12-03T20:14:16.076Z,0.66
2022-12-03T20:16:44.861Z,0.64
2022-12-03T20:19:15.949Z,0.63
2022-12-03T20:21:44.258Z,0.61
2022-12-03T20:24:16.570Z,0.60
2022-12-03T20:26:44.231Z,0.64
2022-12-03T20:29:11.831Z,0.60
2022-12-03T20:31:38.994Z,0.61
2022-12-03T20:34:07.097Z,0.58
2022-12-03T20:36:34.352Z,0.61
2022-12-03T20:39:06.855Z,0.60
2022-12-03T20:41:37.578Z,0.62
2022-12-03T20:44:07.379Z,0.60
2022-12-03T20:46:35.221Z,0.60
2022-12-03T20:49:02.455Z,0.59
2022-12-03T20:51:33.652Z,0.57
2022-12-03T20:54:01.874Z,0.58
2022-12-03T20:56:36.303Z,0.60
2022-12-03T20:59:06.808Z,0.60
2022-12-03T21:01:35.766Z,0.59
2022-12-03T21:04:04.566Z,0.56
2022-12-03T21:06:34.911Z,0.58
2022-12-03T21:09:05.012Z,0.54
2022-12-03T21:11:35.530Z,0.55
2022-12-03T21:14:04.031Z,0.54
2022-12-03T21:17:06.107Z,0.54
2022-12-03T21:19:23.142Z,0.53
2022-12-03T21:21:50.402Z,0.52
2022-12-03T21:24:17.545Z,0.50
2022-12-03T21:26:44.622Z,0.51
2022-12-03T21:29:14.690Z,0.49
2022-12-03T21:31:41.806Z,0.51
2022-12-03T21:34:08.970Z,0.50
2022-12-03T21:36:36.125Z,0.48
2022-12-03T21:39:03.829Z,0.50
2022-12-03T21:41:31.822Z,0.53
2022-12-03T21:43:59.366Z,0.52
2022-12-03T21:47:09.746Z,0.48
2022-12-03T21:49:14.401Z,0.52
2022-12-03T21:51:41.455Z,0.53
2022-12-03T21:54:08.577Z,0.50
2022-12-03T21:56:35.779Z,0.49
2022-12-03T21:59:02.885Z,0.48
2022-12-03T22:01:30.325Z,0.49
2022-12-03T22:03:58.221Z,0.49
2022-12-03T22:06:25.322Z,0.44
2022-12-03T22:08:52.624Z,0.46
2022-12-03T22:11:24.439Z,0.45
2022-12-03T22:13:51.740Z,0.45
2022-12-03T22:16:21.595Z,0.44
2022-12-03T22:18:49.289Z,0.42
2022-12-03T22:21:19.942Z,0.42
2022-12-03T22:23:47.107Z,0.44
2022-12-03T22:26:19.187Z,0.43
2022-12-03T22:28:48.864Z,0.40
2022-12-03T22:31:17.837Z,0.43
2022-12-03T22:33:48.143Z,0.42
2022-12-03T22:36:20.465Z,0.40
2022-12-03T22:38:49.646Z,0.43
2022-12-03T22:41:17.661Z,0.42
2022-12-03T22:43:46.180Z,0.45
2022-12-03T22:46:14.505Z,0.46
2022-12-03T22:48:43.813Z,0.44
2022-12-03T22:51:20.099Z,0.45
2022-12-03T22:53:47.836Z,0.43
2022-12-03T22:56:15.915Z,0.44
2022-12-03T22:58:43.040Z,0.45
2022-12-03T23:01:10.151Z,0.46
2022-12-03T23:03:37.573Z,0.48
2022-12-03T23:06:12.545Z,0.50
2022-12-03T23:08:39.854Z,0.49
2022-12-03T23:11:07.366Z,0.47
2022-12-03T23:13:35.247Z,0.45
2022-12-03T23:16:03.311Z,0.45
2022-12-03T23:18:30.518Z,0.46
2022-12-03T23:20:57.872Z,0.43
2022-12-03T23:23:27.454Z,0.47
2022-12-03T23:26:09.075Z,0.46
2022-12-03T23:28:40.688Z,0.45
2022-12-03T23:31:18.253Z,0.43
2022-12-03T23:33:45.802Z,0.42
2022-12-03T23:36:13.230Z,0.44
2022-12-03T23:38:40.911Z,0.47
2022-12-03T23:41:12.252Z,0.48
2022-12-03T23:43:40.929Z,0.49
2022-12-03T23:46:12.074Z,0.49
2022-12-03T23:48:39.641Z,0.49
2022-12-03T23:51:10.041Z,0.50
2022-12-03T23:53:38.562Z,0.47
2022-12-03T23:56:12.899Z,0.53
2022-12-03T23:58:40.076Z,0.51
